Hauptseite
METAR-TAF:

METAR-TAF

Flughäfen :

Flughafen Rundu

Rundu, Namibia

Breite: 17-57-20S, Länge: 019-43-25E, Höhe: 1106 m

Beobachtung

Neuester Wetterbericht von vor 1 Stunde und 16 Minuten, um 02:00 UTC
Wind 3 kt aus Ost/Nordost
Temperatur 21°C
Luftfeuchtigkeit 83%
Luftdruck 1017 hPa

METAR: FYRU 060200Z AUTO 06003KT //// // ////// 21/18 Q1017

Zeit: 05:16 (03:16 UTC)

Prognose

Neuester Wetterbericht von vor 1 Stunde und 16 Minuten, um 02:00 UTC
Gültige Prognose vom 06 um 03 UTC bis 06 um 12 UTC
Wind 5 kt aus Ost/Nordost
Sichtweite 10 km oder mehr
Aufgelockert bewölkt in der Höhe von 2500 ft
Leicht bewölkt in der Höhe von 3000 ft, Kumulonimbus.
Übergehend zu
vom 06 um 05 UTC bis 06 um 07 UTC
Wind kt aus Nord
Aufgelockert bewölkt in der Höhe von 2000 ft

TAF: FYRU 060200Z 0603/0612 07005KT 9999 SCT025 FEW030CB BECMG 0605/0607 00000KT SCT020

Wetterbeobachtungen und Prognosen von mehr als 4000 Flughäfen (METAR und TAF Bericht).

Die verfügbaren Stationen werden durch gelbe und rote Markierungen auf der Karte dargestellt.

Führen Sie die Maus auf sie, um den Namen der Station zu sehen.

Darauf klicken, um die Beobachtung von Wetterbeobachtungen und Prognosen zu sehen.

Um die Karte zu ändern : klicken Sie auf den grünen Tasten mit einem schwarzen Kreuz Zum Vergrößern, auf den grünen Button mit einem Gedankenstrich zu verkleinern, oder auf die grünen Pfeile für benachbarte Karten.


METAR-TAF: